Time;durP1;ratioP1;P1;durP2;ratioP2;P2;SDS_P1;SDS_P2;PMS_P1;PMS_P2;Temp;Humidity;BMP_temperature;BMP_pressure;BME280_temperature;BME280_humidity;BME280_pressure;Samples;Min_cycle;Max_cycle;Signal;HPM_P1;HPM_P2
2022/05/15 00:02:06;;;;;;;25.40;6.70;;;;;;;;;;4992435;28;20141;-78
2022/05/15 00:04:32;;;;;;;21.63;6.50;;;;;;;;;;4992566;28;20130;-77
2022/05/15 00:06:58;;;;;;;31.83;6.80;;;;;;;;;;5001802;28;20053;-77
2022/05/15 00:09:24;;;;;;;24.20;5.95;;;;;;;;;;5010285;28;20038;-78
2022/05/15 00:11:51;;;;;;;23.10;7.15;;;;;;;;;;5003069;28;20043;-77
2022/05/15 00:14:17;;;;;;;28.55;6.95;;;;;;;;;;5010508;28;20050;-77
2022/05/15 00:16:44;;;;;;;26.40;5.97;;;;;;;;;;5010293;28;20057;-77
2022/05/15 00:19:10;;;;;;;21.23;5.70;;;;;;;;;;5012126;28;20588;-78
2022/05/15 00:21:36;;;;;;;20.35;5.47;;;;;;;;;;5009408;28;20425;-77
2022/05/15 00:24:04;;;;;;;26.35;6.82;;;;;;;;;;5011186;28;20037;-77
2022/05/15 00:26:31;;;;;;;27.27;7.15;;;;;;;;;;5011186;28;20513;-77
2022/05/15 00:28:57;;;;;;;27.80;6.47;;;;;;;;;;5009206;28;20056;-77
2022/05/15 00:31:23;;;;;;;25.77;6.07;;;;;;;;;;5001307;28;20046;-77
2022/05/15 00:33:49;;;;;;;24.35;5.97;;;;;;;;;;4990913;28;20497;-77
2022/05/15 00:36:16;;;;;;;27.33;5.70;;;;;;;;;;4991422;28;20049;-77
2022/05/15 00:38:42;;;;;;;28.67;6.30;;;;;;;;;;5002708;28;20099;-77
2022/05/15 00:41:08;;;;;;;30.90;6.57;;;;;;;;;;5009616;28;20045;-77
2022/05/15 00:43:37;;;;;;;24.75;6.35;;;;;;;;;;5011262;28;20038;-77
2022/05/15 00:46:04;;;;;;;26.30;6.35;;;;;;;;;;5012202;28;20101;-77
2022/05/15 00:48:30;;;;;;;22.75;5.95;;;;;;;;;;5011273;28;20535;-77
2022/05/15 00:50:57;;;;;;;24.42;5.95;;;;;;;;;;5010874;28;20489;-77
2022/05/15 00:53:23;;;;;;;20.15;4.95;;;;;;;;;;4994180;28;20125;-77
2022/05/15 00:55:50;;;;;;;27.08;5.88;;;;;;;;;;4991322;28;20039;-77
2022/05/15 00:58:19;;;;;;;27.88;5.95;;;;;;;;;;4991804;28;20050;-77
2022/05/15 01:00:45;;;;;;;23.20;5.47;;;;;;;;;;4990945;28;20042;-77
2022/05/15 01:03:13;;;;;;;23.27;5.72;;;;;;;;;;4986037;28;20042;-77
2022/05/15 01:05:42;;;;;;;21.17;5.45;;;;;;;;;;5010724;28;20140;-77
2022/05/15 01:08:08;;;;;;;20.80;5.13;;;;;;;;;;5010897;28;20120;-77
2022/05/15 01:10:38;;;;;;;24.00;5.38;;;;;;;;;;5010520;28;20065;-78
2022/05/15 01:13:04;;;;;;;18.80;4.82;;;;;;;;;;4990763;28;20034;-77
2022/05/15 01:15:31;;;;;;;14.40;5.03;;;;;;;;;;4985994;28;20129;-77
2022/05/15 01:17:57;;;;;;;19.48;4.80;;;;;;;;;;5009930;28;20184;-77
2022/05/15 01:20:26;;;;;;;19.10;5.13;;;;;;;;;;5010570;28;20037;-77
2022/05/15 01:22:52;;;;;;;20.52;5.68;;;;;;;;;;5009297;28;20096;-77
2022/05/15 01:25:20;;;;;;;21.95;4.75;;;;;;;;;;4992694;28;20044;-77
2022/05/15 01:27:48;;;;;;;26.92;5.40;;;;;;;;;;4991637;28;20061;-77
2022/05/15 01:30:14;;;;;;;26.05;5.88;;;;;;;;;;4994739;28;20566;-77
2022/05/15 01:32:41;;;;;;;23.52;5.80;;;;;;;;;;5010260;28;20052;-77
2022/05/15 01:35:07;;;;;;;21.23;5.82;;;;;;;;;;5008432;28;20046;-77
2022/05/15 01:37:33;;;;;;;25.60;5.95;;;;;;;;;;5011672;28;20046;-77
2022/05/15 01:39:59;;;;;;;23.20;6.00;;;;;;;;;;5009982;28;20071;-77
2022/05/15 01:42:25;;;;;;;22.35;5.72;;;;;;;;;;5011324;28;20049;-77
2022/05/15 01:44:51;;;;;;;18.55;5.53;;;;;;;;;;4993107;28;20042;-77
2022/05/15 01:47:17;;;;;;;20.67;5.40;;;;;;;;;;5010128;28;20077;-77
2022/05/15 01:49:43;;;;;;;17.60;4.55;;;;;;;;;;5009860;28;20037;-77
2022/05/15 01:52:10;;;;;;;20.98;5.22;;;;;;;;;;5011042;28;20121;-78
2022/05/15 01:54:36;;;;;;;27.27;6.45;;;;;;;;;;4993377;28;20497;-77
2022/05/15 01:57:02;;;;;;;21.05;5.65;;;;;;;;;;4990363;28;20046;-77
2022/05/15 01:59:28;;;;;;;16.05;5.20;;;;;;;;;;4990243;28;20046;-77
2022/05/15 02:01:54;;;;;;;17.15;5.22;;;;;;;;;;4993513;28;20117;-77
2022/05/15 02:04:20;;;;;;;19.73;5.70;;;;;;;;;;5006597;28;20417;-77
2022/05/15 02:06:46;;;;;;;20.15;5.53;;;;;;;;;;4993922;28;20046;-77
2022/05/15 02:09:12;;;;;;;24.60;5.78;;;;;;;;;;4990028;28;20040;-77
2022/05/15 02:11:38;;;;;;;23.55;6.20;;;;;;;;;;4996233;28;20048;-77
2022/05/15 02:14:05;;;;;;;20.35;5.63;;;;;;;;;;5008496;28;20092;-77
2022/05/15 02:16:32;;;;;;;19.73;5.30;;;;;;;;;;4992437;28;20042;-77
2022/05/15 02:18:58;;;;;;;21.33;5.25;;;;;;;;;;5009326;28;20054;-77
2022/05/15 02:21:24;;;;;;;27.95;6.07;;;;;;;;;;5009908;28;20053;-77
2022/05/15 02:23:50;;;;;;;19.48;5.65;;;;;;;;;;5008839;28;20037;-77
2022/05/15 02:26:17;;;;;;;19.33;5.10;;;;;;;;;;5008512;28;20187;-77
2022/05/15 02:28:43;;;;;;;21.08;5.85;;;;;;;;;;4989957;28;20054;-77
2022/05/15 02:31:09;;;;;;;19.77;5.43;;;;;;;;;;4991172;28;20046;-77
2022/05/15 02:33:36;;;;;;;18.90;5.70;;;;;;;;;;4995931;28;20145;-77
2022/05/15 02:36:03;;;;;;;27.05;6.28;;;;;;;;;;5009740;28;20050;-77
2022/05/15 02:38:29;;;;;;;21.90;5.80;;;;;;;;;;4998054;28;20046;-77
2022/05/15 02:40:55;;;;;;;18.63;5.20;;;;;;;;;;4989357;28;20050;-77
2022/05/15 02:43:21;;;;;;;23.40;5.07;;;;;;;;;;4988882;28;20108;-77
2022/05/15 02:45:47;;;;;;;16.13;5.53;;;;;;;;;;5007014;28;20518;-77
2022/05/15 02:51:04;;;;;;;15.68;4.80;;;;;;;;;;4995474;28;20382;-77
2022/05/15 02:53:31;;;;;;;18.65;4.97;;;;;;;;;;5016485;28;20049;-77
2022/05/15 02:55:57;;;;;;;17.00;5.18;;;;;;;;;;5016294;28;20042;-77
2022/05/15 02:58:23;;;;;;;19.17;4.95;;;;;;;;;;4999063;28;20044;-77
2022/05/15 03:00:49;;;;;;;19.35;4.82;;;;;;;;;;5015724;28;20053;-77
2022/05/15 03:03:15;;;;;;;16.67;4.82;;;;;;;;;;5015856;28;20505;-77
2022/05/15 03:05:41;;;;;;;21.23;5.60;;;;;;;;;;5014837;28;20508;-77
2022/05/15 03:08:08;;;;;;;20.15;5.82;;;;;;;;;;5015277;28;20054;-77
2022/05/15 03:10:34;;;;;;;13.40;5.60;;;;;;;;;;4997797;28;20076;-77
2022/05/15 03:13:00;;;;;;;22.13;5.70;;;;;;;;;;5013317;28;20501;-77
2022/05/15 03:15:26;;;;;;;17.00;5.13;;;;;;;;;;4999356;28;20412;-77
2022/05/15 03:17:52;;;;;;;19.70;5.40;;;;;;;;;;4999676;28;20375;-77
2022/05/15 03:20:19;;;;;;;19.65;5.57;;;;;;;;;;5003597;28;20069;-77
2022/05/15 03:22:45;;;;;;;12.90;4.13;;;;;;;;;;4995982;28;20038;-77
2022/05/15 03:25:11;;;;;;;16.10;4.43;;;;;;;;;;4995912;28;20101;-77
2022/05/15 03:27:37;;;;;;;17.85;5.63;;;;;;;;;;5010955;28;20054;-77
2022/05/15 03:30:05;;;;;;;19.67;5.63;;;;;;;;;;5013719;28;20038;-77
2022/05/15 03:32:31;;;;;;;17.67;5.43;;;;;;;;;;5016713;28;20512;-77
2022/05/15 03:34:57;;;;;;;19.83;5.45;;;;;;;;;;5015089;28;20053;-77
2022/05/15 03:37:23;;;;;;;17.27;5.10;;;;;;;;;;5014983;28;20041;-77
2022/05/15 03:39:49;;;;;;;24.05;5.43;;;;;;;;;;5014567;28;20045;-77
2022/05/15 03:42:15;;;;;;;20.20;5.90;;;;;;;;;;4996305;28;20046;-77
2022/05/15 03:44:41;;;;;;;19.00;6.18;;;;;;;;;;4995347;28;20104;-77
2022/05/15 03:47:07;;;;;;;24.98;6.28;;;;;;;;;;4998657;28;20054;-77
2022/05/15 03:49:33;;;;;;;25.88;6.28;;;;;;;;;;5014988;28;20052;-77
2022/05/15 03:51:59;;;;;;;21.52;5.85;;;;;;;;;;5012493;28;20509;-77
2022/05/15 03:54:27;;;;;;;27.95;6.68;;;;;;;;;;4995158;28;20073;-77
2022/05/15 03:56:53;;;;;;;19.10;5.75;;;;;;;;;;5009881;28;20050;-77
2022/05/15 03:59:25;;;;;;;24.00;5.80;;;;;;;;;;4998305;28;20085;-77
2022/05/15 04:01:51;;;;;;;16.85;5.88;;;;;;;;;;5011060;28;20088;-77
2022/05/15 04:04:17;;;;;;;30.42;7.25;;;;;;;;;;4999619;28;20069;-77
2022/05/15 04:06:44;;;;;;;21.75;6.45;;;;;;;;;;4983489;28;20490;-77
2022/05/15 04:09:10;;;;;;;22.73;6.00;;;;;;;;;;5011846;28;20048;-77
2022/05/15 04:11:36;;;;;;;26.80;6.32;;;;;;;;;;4993676;28;20038;-77
2022/05/15 04:14:02;;;;;;;21.73;6.30;;;;;;;;;;4999101;28;20391;-77
2022/05/15 04:16:29;;;;;;;24.85;6.05;;;;;;;;;;4994278;28;20057;-77
2022/05/15 04:18:55;;;;;;;21.08;5.63;;;;;;;;;;5011745;28;20038;-77
2022/05/15 04:21:22;;;;;;;22.88;5.78;;;;;;;;;;5011932;28;20453;-77
2022/05/15 04:23:48;;;;;;;26.10;6.75;;;;;;;;;;5008616;28;20061;-77
2022/05/15 04:26:14;;;;;;;15.73;5.07;;;;;;;;;;5010280;28;20478;-77
2022/05/15 04:28:41;;;;;;;15.98;5.60;;;;;;;;;;5011658;28;20042;-77
2022/05/15 04:31:08;;;;;;;17.17;4.97;;;;;;;;;;5012304;28;20046;-77
2022/05/15 04:33:34;;;;;;;25.02;6.10;;;;;;;;;;5011423;28;20076;-78
2022/05/15 04:36:00;;;;;;;16.67;5.63;;;;;;;;;;5012689;28;20046;-79
2022/05/15 04:38:26;;;;;;;14.32;5.15;;;;;;;;;;5011537;28;20124;-78
2022/05/15 04:40:53;;;;;;;17.15;5.40;;;;;;;;;;4993758;28;20038;-78
2022/05/15 04:43:19;;;;;;;18.73;5.78;;;;;;;;;;5009053;28;20064;-78
2022/05/15 04:45:45;;;;;;;19.58;5.70;;;;;;;;;;5012216;28;20065;-78
2022/05/15 04:48:12;;;;;;;19.77;5.07;;;;;;;;;;5011090;28;20041;-78
2022/05/15 04:50:38;;;;;;;21.38;5.40;;;;;;;;;;5007893;28;20045;-78
2022/05/15 04:53:07;;;;;;;18.95;5.20;;;;;;;;;;4994355;28;20104;-78
2022/05/15 04:55:34;;;;;;;18.05;4.97;;;;;;;;;;4991467;28;20470;-78
2022/05/15 04:58:00;;;;;;;22.38;5.43;;;;;;;;;;4991302;28;20134;-78
2022/05/15 05:00:26;;;;;;;15.27;4.60;;;;;;;;;;4992657;28;20042;-78
2022/05/15 05:02:52;;;;;;;23.48;5.63;;;;;;;;;;5005314;28;20073;-78
2022/05/15 05:05:18;;;;;;;19.35;5.35;;;;;;;;;;5007096;28;20046;-78
2022/05/15 05:07:45;;;;;;;19.10;5.05;;;;;;;;;;5003113;28;20062;-78
2022/05/15 05:10:12;;;;;;;18.70;5.25;;;;;;;;;;5006789;28;20038;-78
2022/05/15 05:12:38;;;;;;;15.13;4.75;;;;;;;;;;4996652;28;20038;-78
2022/05/15 05:15:05;;;;;;;18.27;5.15;;;;;;;;;;5006398;28;20149;-78
2022/05/15 05:17:31;;;;;;;17.70;5.10;;;;;;;;;;5008931;28;20044;-78
2022/05/15 05:19:57;;;;;;;18.25;4.88;;;;;;;;;;4990060;28;20078;-79
2022/05/15 05:22:23;;;;;;;17.30;5.00;;;;;;;;;;5002844;28;20046;-78
2022/05/15 05:24:49;;;;;;;17.38;4.72;;;;;;;;;;5005636;28;20038;-78
2022/05/15 05:27:15;;;;;;;17.70;4.68;;;;;;;;;;5006206;28;20117;-79
2022/05/15 05:29:41;;;;;;;18.45;4.57;;;;;;;;;;5007429;28;20112;-79
2022/05/15 05:32:07;;;;;;;15.93;4.30;;;;;;;;;;4990151;28;20122;-79
2022/05/15 05:34:37;;;;;;;15.40;4.50;;;;;;;;;;5009986;28;20041;-78
2022/05/15 05:37:03;;;;;;;19.95;4.88;;;;;;;;;;4994096;28;20398;-79
2022/05/15 05:39:29;;;;;;;16.63;4.45;;;;;;;;;;5009837;28;20050;-79
2022/05/15 05:41:56;;;;;;;19.20;4.55;;;;;;;;;;4993450;28;20073;-77
2022/05/15 05:44:22;;;;;;;20.45;4.88;;;;;;;;;;5010352;28;20049;-77
2022/05/15 05:46:49;;;;;;;19.27;4.43;;;;;;;;;;5009493;28;20042;-77
2022/05/15 05:49:15;;;;;;;17.23;4.57;;;;;;;;;;5010274;28;20073;-77
2022/05/15 05:51:41;;;;;;;19.52;4.47;;;;;;;;;;5009597;28;20053;-78
2022/05/15 05:54:07;;;;;;;14.32;4.03;;;;;;;;;;5008873;28;20049;-77
2022/05/15 05:56:33;;;;;;;17.55;4.63;;;;;;;;;;5006449;28;20080;-78
2022/05/15 05:58:59;;;;;;;18.73;4.93;;;;;;;;;;5009312;28;20557;-78
2022/05/15 06:01:25;;;;;;;17.67;4.30;;;;;;;;;;5008477;28;20042;-78
2022/05/15 06:06:36;;;;;;;17.65;3.90;;;;;;;;;;5008732;28;20050;-79
2022/05/15 06:09:02;;;;;;;17.17;3.83;;;;;;;;;;5008572;28;20889;-79
2022/05/15 06:11:29;;;;;;;18.40;4.32;;;;;;;;;;5003594;28;20035;-79
2022/05/15 06:13:55;;;;;;;21.75;4.20;;;;;;;;;;5007443;28;20045;-79
2022/05/15 06:16:21;;;;;;;13.77;4.38;;;;;;;;;;5005521;28;20050;-79
2022/05/15 06:18:47;;;;;;;14.85;3.72;;;;;;;;;;5006561;28;20057;-79
2022/05/15 06:21:13;;;;;;;19.40;4.85;;;;;;;;;;5007088;28;20045;-79
2022/05/15 06:23:40;;;;;;;19.10;4.90;;;;;;;;;;5005864;28;20041;-79
2022/05/15 06:26:06;;;;;;;17.90;4.30;;;;;;;;;;5007936;28;20053;-79
2022/05/15 06:28:34;;;;;;;17.92;3.78;;;;;;;;;;5007203;28;20080;-79
2022/05/15 06:31:00;;;;;;;17.38;3.50;;;;;;;;;;4992279;28;20485;-79
2022/05/15 06:33:26;;;;;;;18.52;4.07;;;;;;;;;;5009085;28;20069;-79
2022/05/15 06:35:53;;;;;;;15.57;3.97;;;;;;;;;;4992132;28;20156;-79
2022/05/15 06:38:19;;;;;;;13.00;4.10;;;;;;;;;;5008069;28;20080;-79
2022/05/15 06:40:45;;;;;;;14.98;3.70;;;;;;;;;;5007990;28;20104;-79
2022/05/15 06:43:11;;;;;;;15.68;3.63;;;;;;;;;;5006557;28;20073;-79
2022/05/15 06:45:37;;;;;;;14.13;3.78;;;;;;;;;;5009835;28;20120;-79
2022/05/15 06:48:03;;;;;;;14.48;3.42;;;;;;;;;;5009569;28;20080;-79
2022/05/15 06:50:29;;;;;;;12.55;3.45;;;;;;;;;;5008381;28;20038;-79
2022/05/15 06:52:55;;;;;;;17.40;4.43;;;;;;;;;;5001805;28;20057;-79
2022/05/15 06:55:22;;;;;;;17.33;4.13;;;;;;;;;;5008121;28;20045;-79
2022/05/15 06:57:50;;;;;;;11.77;3.10;;;;;;;;;;5006740;28;20374;-77
2022/05/15 07:00:25;;;;;;;15.07;3.40;;;;;;;;;;5009801;28;20045;-77
2022/05/15 07:02:51;;;;;;;18.50;4.13;;;;;;;;;;4999680;28;20389;-77
2022/05/15 07:05:26;;;;;;;11.98;2.85;;;;;;;;;;5007541;28;20192;-77
2022/05/15 07:07:52;;;;;;;16.93;3.27;;;;;;;;;;4991659;28;20506;-77
2022/05/15 07:10:19;;;;;;;15.70;3.25;;;;;;;;;;4975365;28;20438;-77
2022/05/15 07:12:45;;;;;;;12.27;3.45;;;;;;;;;;4992754;28;20486;-77
2022/05/15 07:15:12;;;;;;;11.98;3.25;;;;;;;;;;5007784;28;20049;-78
2022/05/15 07:17:38;;;;;;;13.52;3.25;;;;;;;;;;5006828;28;20050;-78
2022/05/15 07:20:05;;;;;;;12.80;3.03;;;;;;;;;;5007480;28;20052;-78
2022/05/15 07:22:31;;;;;;;16.05;3.28;;;;;;;;;;5007295;28;20121;-78
2022/05/15 07:24:57;;;;;;;12.30;3.10;;;;;;;;;;5009092;28;20037;-78
2022/05/15 07:27:23;;;;;;;14.55;3.00;;;;;;;;;;5008745;28;20477;-78
2022/05/15 07:29:49;;;;;;;15.18;3.63;;;;;;;;;;5017284;28;20563;-78
2022/05/15 07:32:15;;;;;;;13.90;3.40;;;;;;;;;;5008489;28;20111;-78
2022/05/15 07:34:41;;;;;;;11.90;3.20;;;;;;;;;;5008760;28;20033;-78
2022/05/15 07:37:08;;;;;;;14.93;3.63;;;;;;;;;;5008628;28;20145;-78
2022/05/15 07:39:34;;;;;;;14.00;3.15;;;;;;;;;;5012146;28;20054;-78
2022/05/15 07:42:00;;;;;;;11.40;3.22;;;;;;;;;;5011450;28;20048;-78
2022/05/15 07:44:26;;;;;;;12.48;3.00;;;;;;;;;;5012340;28;20061;-78
2022/05/15 07:46:52;;;;;;;11.38;3.10;;;;;;;;;;5011979;28;20033;-78
2022/05/15 07:49:18;;;;;;;11.73;2.92;;;;;;;;;;5012368;28;20053;-78
2022/05/15 07:51:44;;;;;;;12.75;3.50;;;;;;;;;;5011696;28;20486;-78
2022/05/15 07:54:15;;;;;;;12.80;3.05;;;;;;;;;;5011584;28;20041;-78
2022/05/15 07:56:41;;;;;;;13.13;3.53;;;;;;;;;;5011743;28;20041;-78
2022/05/15 07:59:08;;;;;;;16.17;3.88;;;;;;;;;;5011055;28;20409;-78
2022/05/15 08:01:34;;;;;;;12.55;2.50;;;;;;;;;;5011236;28;20048;-78
2022/05/15 08:04:00;;;;;;;14.57;2.88;;;;;;;;;;5011700;28;20473;-76
2022/05/15 08:09:11;;;;;;;11.80;3.53;;;;;;;;;;5010768;28;20061;-79
2022/05/15 08:11:37;;;;;;;13.68;3.20;;;;;;;;;;5010773;28;20042;-78
2022/05/15 08:14:04;;;;;;;12.00;2.97;;;;;;;;;;5010003;28;20044;-79
2022/05/15 08:16:31;;;;;;;15.75;3.33;;;;;;;;;;5010952;28;20038;-78
2022/05/15 08:24:26;;;;;;;11.38;3.30;;;;;;;;;;5010685;28;20083;-79
2022/05/15 08:26:53;;;;;;;25.92;3.70;;;;;;;;;;5009854;28;20081;-79
2022/05/15 08:29:19;;;;;;;11.60;3.03;;;;;;;;;;5011440;28;20042;-79
2022/05/15 08:31:46;;;;;;;17.67;4.05;;;;;;;;;;5011554;28;20049;-79
2022/05/15 08:34:12;;;;;;;14.73;3.42;;;;;;;;;;5010649;28;20057;-79
2022/05/15 08:36:41;;;;;;;12.75;3.20;;;;;;;;;;5009987;28;20057;-79
2022/05/15 08:39:08;;;;;;;17.73;3.13;;;;;;;;;;5009940;28;20139;-79
2022/05/15 08:41:45;;;;;;;12.63;3.20;;;;;;;;;;5011551;28;20152;-79
2022/05/15 08:44:11;;;;;;;15.88;3.38;;;;;;;;;;5009965;28;20046;-79
2022/05/15 08:46:37;;;;;;;16.33;3.53;;;;;;;;;;5009618;28;20042;-79
2022/05/15 08:49:12;;;;;;;12.32;3.47;;;;;;;;;;4990526;28;20467;-79
2022/05/15 08:51:38;;;;;;;;;;;;;;;;;;4999346;28;20042;-75
2022/05/15 08:54:07;;;;;;;13.55;2.92;;;;;;;;;;4998169;28;19921;-79
2022/05/15 08:56:36;;;;;;;20.40;3.78;;;;;;;;;;5010923;28;20514;-78
2022/05/15 08:59:04;;;;;;;12.73;3.22;;;;;;;;;;5001671;28;20415;-78
2022/05/15 09:01:31;;;;;;;17.27;3.60;;;;;;;;;;5007668;28;20042;-78
2022/05/15 09:03:58;;;;;;;12.38;3.22;;;;;;;;;;5008476;28;20403;-78
2022/05/15 09:06:35;;;;;;;11.85;3.10;;;;;;;;;;5007993;28;20065;-78
2022/05/15 09:09:20;;;;;;;12.20;3.28;;;;;;;;;;5010448;28;20042;-79
2022/05/15 09:12:05;;;;;;;15.90;3.50;;;;;;;;;;5003200;28;20064;-79
2022/05/15 09:14:34;;;;;;;11.83;3.80;;;;;;;;;;5010683;28;20374;-79
2022/05/15 09:17:13;;;;;;;15.27;4.03;;;;;;;;;;5003964;28;20077;-79
2022/05/15 09:19:39;;;;;;;17.45;3.28;;;;;;;;;;5010881;28;20042;-79
2022/05/15 09:22:05;;;;;;;10.38;3.05;;;;;;;;;;5004970;28;20137;-76
2022/05/15 09:24:43;;;;;;;14.80;3.75;;;;;;;;;;5006642;28;20044;-75
2022/05/15 09:27:20;;;;;;;16.30;3.35;;;;;;;;;;4998995;28;20393;-79
2022/05/15 09:29:53;;;;;;;10.93;2.75;;;;;;;;;;5007497;28;20045;-78
2022/05/15 09:38:29;;;;;;;12.38;3.22;;;;;;;;;;4951558;22;20031;-76
2022/05/15 09:43:59;;;;;;;14.80;3.47;;;;;;;;;;4968372;28;20042;-79
2022/05/15 09:46:27;;;;;;;11.43;3.00;;;;;;;;;;4973836;28;20073;-79
2022/05/15 09:48:55;;;;;;;19.85;3.58;;;;;;;;;;4954224;28;20132;-78
2022/05/15 09:51:27;;;;;;;14.05;3.33;;;;;;;;;;4955392;28;20042;-79
2022/05/15 09:53:55;;;;;;;18.20;3.80;;;;;;;;;;4946088;28;20050;-78
2022/05/15 09:56:21;;;;;;;14.55;3.72;;;;;;;;;;4963013;28;20121;-79
2022/05/15 09:59:08;;;;;;;17.23;3.42;;;;;;;;;;4988584;28;20060;-78
2022/05/15 10:01:40;;;;;;;15.52;2.95;;;;;;;;;;4959153;28;20050;-79
2022/05/15 10:04:08;;;;;;;15.13;3.78;;;;;;;;;;4973417;28;20463;-79
2022/05/15 10:06:38;;;;;;;13.85;3.20;;;;;;;;;;4973492;28;20034;-79
2022/05/15 10:09:06;;;;;;;20.27;4.10;;;;;;;;;;4956036;28;20099;-79
2022/05/15 10:11:33;;;;;;;12.52;3.60;;;;;;;;;;4957137;28;20030;-79
2022/05/15 10:13:59;;;;;;;15.50;3.65;;;;;;;;;;4989239;28;20076;-79
2022/05/15 10:16:30;;;;;;;18.55;3.85;;;;;;;;;;4973532;28;20057;-77
2022/05/15 10:19:08;;;;;;;14.45;3.30;;;;;;;;;;4973620;28;20130;-77
2022/05/15 10:21:38;;;;;;;12.68;3.28;;;;;;;;;;4957739;28;20466;-77
2022/05/15 10:24:06;;;;;;;11.05;3.05;;;;;;;;;;4973005;28;20050;-76
2022/05/15 10:26:35;;;;;;;16.80;4.05;;;;;;;;;;4972894;28;20042;-75
2022/05/15 10:29:21;;;;;;;12.90;3.22;;;;;;;;;;4990161;28;20051;-76
2022/05/15 10:31:49;;;;;;;13.70;2.83;;;;;;;;;;4973031;28;20050;-76
2022/05/15 10:34:18;;;;;;;13.07;3.30;;;;;;;;;;4971487;28;20043;-75
2022/05/15 10:36:47;;;;;;;17.20;3.67;;;;;;;;;;4972027;28;20129;-75
2022/05/15 10:39:19;;;;;;;13.10;3.13;;;;;;;;;;4971341;28;20137;-75
2022/05/15 10:42:01;;;;;;;13.00;3.25;;;;;;;;;;4972722;28;20054;-75
2022/05/15 10:44:42;;;;;;;16.55;3.78;;;;;;;;;;4988496;28;20242;-76
2022/05/15 10:47:14;;;;;;;16.50;3.35;;;;;;;;;;4954374;28;20081;-76
2022/05/15 10:49:46;;;;;;;13.75;3.13;;;;;;;;;;4972957;28;20042;-76
2022/05/15 10:52:21;;;;;;;13.43;2.90;;;;;;;;;;4972356;28;20034;-76
2022/05/15 10:57:51;;;;;;;10.75;3.30;;;;;;;;;;4971952;28;20038;-75
2022/05/15 11:00:24;;;;;;;16.98;3.58;;;;;;;;;;4971819;28;20337;-76
2022/05/15 11:03:00;;;;;;;15.45;3.70;;;;;;;;;;4988590;28;20109;-75
2022/05/15 11:05:41;;;;;;;13.48;3.60;;;;;;;;;;4972776;28;20045;-74
2022/05/15 11:08:30;;;;;;;12.27;3.00;;;;;;;;;;4971692;28;20034;-75
2022/05/15 11:10:59;;;;;;;23.38;3.67;;;;;;;;;;4965705;28;20070;-75
2022/05/15 11:13:44;;;;;;;15.85;3.55;;;;;;;;;;4958616;28;20499;-76
2022/05/15 11:16:15;;;;;;;15.00;3.40;;;;;;;;;;4976517;28;20137;-76
2022/05/15 11:18:56;;;;;;;16.48;3.20;;;;;;;;;;4994473;28;20097;-75
2022/05/15 11:21:29;;;;;;;14.98;3.20;;;;;;;;;;4960399;28;20490;-76
2022/05/15 11:23:58;;;;;;;11.73;3.20;;;;;;;;;;4976029;28;20050;-77
2022/05/15 11:26:27;;;;;;;16.83;3.55;;;;;;;;;;4960223;28;20043;-76
2022/05/15 11:28:56;;;;;;;11.80;2.65;;;;;;;;;;4976423;28;20048;-76
2022/05/15 11:31:23;;;;;;;10.93;3.20;;;;;;;;;;4959763;28;20117;-77
2022/05/15 11:33:57;;;;;;;14.55;3.42;;;;;;;;;;4972169;28;20035;-76
2022/05/15 11:36:23;;;;;;;12.07;3.33;;;;;;;;;;4973711;28;20401;-79
2022/05/15 11:38:49;;;;;;;13.70;3.30;;;;;;;;;;4976763;28;20093;-78
2022/05/15 11:41:34;;;;;;;13.48;3.50;;;;;;;;;;4972112;28;20074;-78
2022/05/15 11:44:03;;;;;;;16.65;3.17;;;;;;;;;;4971639;28;20054;-78
2022/05/15 11:46:47;;;;;;;21.55;3.58;;;;;;;;;;4972512;28;20039;-77
2022/05/15 11:49:13;;;;;;;12.25;2.53;;;;;;;;;;4972912;28;20050;-77
2022/05/15 11:51:40;;;;;;;10.10;3.00;;;;;;;;;;4957485;28;20039;-79
2022/05/15 11:54:08;;;;;;;15.68;3.28;;;;;;;;;;4956594;28;20130;-78
2022/05/15 11:56:46;;;;;;;14.40;3.20;;;;;;;;;;4972314;28;20039;-78
2022/05/15 11:59:15;;;;;;;13.32;3.40;;;;;;;;;;4972952;28;20478;-78
2022/05/15 12:01:47;;;;;;;12.60;2.90;;;;;;;;;;4972990;28;20055;-79
2022/05/15 12:04:20;;;;;;;11.15;3.00;;;;;;;;;;4972399;28;20117;-79
2022/05/15 12:06:46;;;;;;;16.23;2.75;;;;;;;;;;4972140;28;20078;-78
2022/05/15 12:09:19;;;;;;;9.80;2.88;;;;;;;;;;4972511;28;20501;-79
2022/05/15 12:11:46;;;;;;;13.00;2.90;;;;;;;;;;4972449;28;20101;-79
2022/05/15 12:14:33;;;;;;;11.82;3.08;;;;;;;;;;4972551;28;20078;-79
2022/05/15 12:17:17;;;;;;;12.25;2.95;;;;;;;;;;4956060;28;20053;-79
2022/05/15 12:19:44;;;;;;;14.40;3.13;;;;;;;;;;4955690;28;20471;-79
2022/05/15 12:22:13;;;;;;;13.75;2.72;;;;;;;;;;4973404;28;20038;-73
2022/05/15 12:24:43;;;;;;;10.98;2.85;;;;;;;;;;4970341;28;20045;-80
2022/05/15 12:27:21;;;;;;;13.52;3.15;;;;;;;;;;4970374;28;20043;-78
2022/05/15 12:30:00;;;;;;;13.60;3.00;;;;;;;;;;4972103;28;20209;-78
2022/05/15 12:32:40;;;;;;;12.50;2.88;;;;;;;;;;4968108;28;20035;-78
2022/05/15 12:35:10;;;;;;;9.05;2.67;;;;;;;;;;4971594;28;20035;-78
2022/05/15 12:37:52;;;;;;;11.25;3.10;;;;;;;;;;4955508;28;20043;-79
2022/05/15 12:40:26;;;;;;;11.63;3.13;;;;;;;;;;4967706;28;20099;-78
2022/05/15 12:42:53;;;;;;;12.95;3.13;;;;;;;;;;4971684;28;20051;-78
2022/05/15 12:45:21;;;;;;;12.18;3.15;;;;;;;;;;4962208;28;20055;-78
2022/05/15 12:48:06;;;;;;;13.20;2.80;;;;;;;;;;4962392;28;20053;-78
2022/05/15 12:50:32;;;;;;;10.38;2.78;;;;;;;;;;4962191;28;20042;-78
2022/05/15 12:53:03;;;;;;;12.25;2.92;;;;;;;;;;4971290;28;20046;-78
2022/05/15 12:55:34;;;;;;;40.13;4.65;;;;;;;;;;4972537;28;20486;-79
2022/05/15 12:58:05;;;;;;;12.85;2.63;;;;;;;;;;4972738;28;20422;-77
2022/05/15 13:00:42;;;;;;;11.75;2.63;;;;;;;;;;4955124;28;20129;-77
2022/05/15 13:03:11;;;;;;;14.15;3.40;;;;;;;;;;4971860;28;20043;-77
2022/05/15 13:05:51;;;;;;;13.50;2.72;;;;;;;;;;4969965;28;20050;-77
2022/05/15 13:08:17;;;;;;;14.10;2.97;;;;;;;;;;4970009;28;20427;-76
2022/05/15 13:10:56;;;;;;;12.27;3.08;;;;;;;;;;4971539;28;20524;-73
2022/05/15 13:13:30;;;;;;;11.90;3.80;;;;;;;;;;4970219;28;20053;-77
2022/05/15 13:15:57;;;;;;;14.07;3.15;;;;;;;;;;4959979;28;20035;-77
2022/05/15 13:18:26;;;;;;;14.93;2.90;;;;;;;;;;4965376;28;20039;-77
2022/05/15 13:21:02;;;;;;;10.15;2.55;;;;;;;;;;4965336;28;20693;-78
2022/05/15 13:23:30;;;;;;;12.55;2.70;;;;;;;;;;4971145;28;20053;-77
2022/05/15 13:25:57;;;;;;;10.98;2.70;;;;;;;;;;4971199;28;20049;-78
2022/05/15 13:28:23;;;;;;;10.90;2.47;;;;;;;;;;4971172;28;20490;-78
2022/05/15 13:30:49;;;;;;;9.38;2.97;;;;;;;;;;4970980;28;20050;-78
2022/05/15 13:33:20;;;;;;;12.30;2.75;;;;;;;;;;4970399;28;20101;-77
2022/05/15 13:35:51;;;;;;;12.40;2.75;;;;;;;;;;4970857;28;20050;-77
2022/05/15 13:44:08;;;;;;;11.52;3.13;;;;;;;;;;4959650;28;20619;-77
2022/05/15 13:46:40;;;;;;;7.10;2.42;;;;;;;;;;4964913;28;20085;-78
2022/05/15 13:49:12;;;;;;;9.95;2.80;;;;;;;;;;4969600;28;20432;-77
2022/05/15 13:51:38;;;;;;;13.23;3.00;;;;;;;;;;4954511;28;20050;-78
2022/05/15 13:54:21;;;;;;;10.18;2.60;;;;;;;;;;4960496;28;20047;-78
2022/05/15 13:56:49;;;;;;;14.30;2.92;;;;;;;;;;4951342;28;20474;-77
2022/05/15 13:59:34;;;;;;;9.35;2.67;;;;;;;;;;4970553;28;20051;-78
2022/05/15 14:02:14;;;;;;;14.10;3.35;;;;;;;;;;4970837;28;20050;-77
2022/05/15 14:04:42;;;;;;;11.38;2.60;;;;;;;;;;4970190;28;20394;-77
2022/05/15 14:07:08;;;;;;;9.60;2.55;;;;;;;;;;4953693;28;20066;-78
2022/05/15 14:09:51;;;;;;;9.15;2.80;;;;;;;;;;4970166;28;20043;-77
2022/05/15 14:12:37;;;;;;;9.70;2.60;;;;;;;;;;4960747;28;20043;-77
2022/05/15 14:15:07;;;;;;;9.57;2.70;;;;;;;;;;4970107;28;20509;-77
2022/05/15 14:17:46;;;;;;;13.65;2.47;;;;;;;;;;4970480;28;20530;-77
2022/05/15 14:20:13;;;;;;;11.15;2.97;;;;;;;;;;4970461;28;20557;-78
2022/05/15 14:22:40;;;;;;;11.93;2.92;;;;;;;;;;4970179;28;20052;-78
2022/05/15 14:25:10;;;;;;;17.15;2.95;;;;;;;;;;4970181;28;20066;-78
2022/05/15 14:27:37;;;;;;;11.52;2.92;;;;;;;;;;4969697;28;20046;-78
2022/05/15 14:30:04;;;;;;;10.05;2.58;;;;;;;;;;4969705;28;20041;-78
2022/05/15 14:32:31;;;;;;;11.15;2.45;;;;;;;;;;4953455;28;20078;-78
2022/05/15 14:34:58;;;;;;;10.60;3.00;;;;;;;;;;4969548;28;20054;-77
2022/05/15 14:37:25;;;;;;;9.55;2.92;;;;;;;;;;4969411;28;20053;-77
2022/05/15 14:39:51;;;;;;;7.93;2.40;;;;;;;;;;4969599;28;20129;-78
2022/05/15 14:42:17;;;;;;;11.07;2.97;;;;;;;;;;4969477;28;20055;-77
2022/05/15 14:44:43;;;;;;;10.60;2.60;;;;;;;;;;4966930;28;20494;-77
2022/05/15 14:47:11;;;;;;;11.68;2.70;;;;;;;;;;4963894;28;20183;-77
2022/05/15 14:49:38;;;;;;;11.05;2.80;;;;;;;;;;4962683;28;20050;-79
2022/05/15 14:52:05;;;;;;;11.15;2.70;;;;;;;;;;4948298;28;20039;-79
2022/05/15 14:54:32;;;;;;;10.40;2.45;;;;;;;;;;4969713;28;20097;-79
2022/05/15 14:57:00;;;;;;;10.95;2.63;;;;;;;;;;4969416;28;20073;-79
2022/05/15 14:59:27;;;;;;;12.60;2.75;;;;;;;;;;4970500;28;20058;-79
2022/05/15 15:01:53;;;;;;;8.52;2.40;;;;;;;;;;4954010;28;20043;-79
2022/05/15 15:04:19;;;;;;;9.65;2.50;;;;;;;;;;4954078;28;20130;-79
2022/05/15 15:06:46;;;;;;;9.38;2.28;;;;;;;;;;4953759;28;20051;-78
2022/05/15 15:09:12;;;;;;;10.05;2.63;;;;;;;;;;4969205;28;20072;-80
2022/05/15 15:11:46;;;;;;;7.45;2.33;;;;;;;;;;4967042;28;20038;-79